岡山空港の過去48時間の天気

岡山空港 (Okayama)

現在時刻: 8/4 06:03 JST (8/3 21:03 UTC) 以下の時間は現地時間です。

過去48時間のMETAR気象情報
時間 風向 風速(m/s) 視程 気温(℃) 湿度(%) 気圧(hPa) 天気現象
3 21:00 南南東 3 10km以上 25 89 1014
3 20:00 南東 2 10km以上 26 89 1014
3 19:00 東南東 2 10km以上 27 84 1013
3 18:00 南東 3 10km以上 28 79 1013
3 17:00 南東 3 10km以上 29 74 1013
3 16:00 南南東 2 10km以上 29 79 1013
3 15:00 南南東 3 10km以上 29 79 1013
3 14:00 南東 2 10km以上 29 74 1013
3 13:00 2 10km以上 29 74 1013
3 12:00 不定 1 10km以上 29 74 1014
3 11:00 2 10km以上 28 79 1014
3 10:00 南東 2 8000m 28 84 1014
3 09:00 2 6000m 26 94 1014
3 08:20 東南東 2 5000m 25 94 1014 もや 部分霧
3 08:00 不定 1 4000m 26 89 1014 もや 散在した霧
3 07:00 不定 1 3500m 25 94 1014 もや 散在した霧
3 06:15 不定 1 3000m 24 94 1014 もや 散在した霧
2 21:00 2 10km以上 26 84 1013
2 20:00 不定 1 10km以上 26 84 1013
2 19:00 南東 1 10km以上 27 79 1012
2 18:00 東南東 3 10km以上 28 74 1012
2 17:00 3 10km以上 31 59 1011
2 16:00 3 10km以上 31 49 1012
2 15:00 2 10km以上 32 59 1012
2 14:00 南東 3 10km以上 31 66 1012
2 13:00 2 10km以上 31 70 1013
2 12:00 南西 3 10km以上 30 75 1013
2 11:00 不定 2 10km以上 29 79 1014
2 10:00 南東 2 10km以上 28 79 1014
2 09:00 不定 1 9000m 27 84 1014
2 08:15 不定 1 7000m 25 94 1014
2 08:00 東南東 2 7000m 25 100 1014
2 07:00 不定 1 7000m 25 94 1014 部分霧
2 06:15 不定 1 7000m 24 94 1013 部分霧
RJOB 031200Z 15005KT 9999 FEW020 BKN/// 25/23 Q1014
RJOB 031100Z 13003KT 9999 FEW010 BKN/// 26/24 Q1014
RJOB 031000Z 12003KT 9999 FEW025 BKN/// 27/24 Q1013
RJOB 030900Z 13005KT 9999 FEW020 BKN/// 28/24 Q1013
RJOB 030800Z 14005KT 100V170 9999 FEW020 BKN/// 29/24 Q1013
RJOB 030700Z 15004KT 100V180 9999 FEW015 SCT025 BKN/// 29/25 Q1013
RJOB 030600Z 15005KT 110V200 9999 FEW020 SCT030 BKN/// 29/25 Q1013
RJOB 030500Z 14004KT 090V210 9999 FEW020 SCT030 BKN/// 29/24 Q1013
RJOB 030400Z 19004KT 100V250 9999 FEW020 SCT030 BKN/// 29/24 Q1013
RJOB 030300Z VRB02KT 9999 FEW015 SCT025 BKN/// 29/24 Q1014
RJOB 030200Z 18003KT 110V230 9999 FEW010 SCT015 BKN020 28/24 Q1014
RJOB 030100Z 13004KT 100V190 8000 FEW007 SCT010 BKN015 28/25 Q1014
RJOB 030000Z 09003KT 6000 FEW002 SCT007 BKN010 26/25 Q1014
RJOB 022320Z 11003KT 070V130 5000 BR PRFG FEW000 SCT006 BKN008 25/24 Q1014 RMK 1ST000 3ST006 5ST008 A2996 FG NE-E
RJOB 022300Z VRB01KT 4000 BR BCFG FEW000 SCT006 BKN008 26/24 Q1014
RJOB 022200Z VRB01KT 3500 BR BCFG FEW000 SCT005 BKN007 25/24 Q1014
RJOB 022115Z VRB01KT 3000 BR BCFG FEW000 SCT005 BKN007 24/23 Q1014 RMK 1ST000 3ST005 5ST007 A2995 FG NE-E AND SW
RJOB 021200Z 08004KT 9999 FEW025 SCT/// 26/23 Q1013
RJOB 021100Z VRB02KT 9999 FEW025 SCT160 BKN/// 26/23 Q1013
RJOB 021000Z 13002KT 9999 FEW020 SCT140 BKN/// 27/23 Q1012
RJOB 020900Z 11006KT 9999 FEW020 FEW025CB SCT150 BKN/// 28/23 Q1012
RJOB 020800Z 19005KT 150V220 9999 FEW025 BKN/// 31/22 Q1011
RJOB 020700Z 19006KT 9999 FEW025 SCT140 BKN/// 31/19 Q1012
RJOB 020600Z 17004KT 120V240 9999 FEW020 SCT150 BKN/// 32/23 Q1012
RJOB 020500Z 13006KT 090V170 9999 FEW020 SCT030 BKN/// 31/24 Q1012
RJOB 020400Z 19004KT 140V270 9999 FEW020 SCT025 BKN/// 31/25 Q1013
RJOB 020300Z 23006KT 190V300 9999 FEW020 SCT025 BKN/// 30/25 Q1013
RJOB 020200Z VRB04KT 9999 FEW010 SCT015 BKN/// 29/25 Q1014
RJOB 020100Z 13003KT 050V170 9999 FEW007 BKN010 BKN/// 28/24 Q1014
RJOB 020000Z VRB01KT 9000 FEW002 SCT007 BKN010 27/24 Q1014
RJOB 012315Z VRB02KT 7000 FEW002 SCT005 BKN007 25/24 Q1014 RMK 1ST002 3ST005 5ST007 A2995
RJOB 012300Z 11003KT 080V140 7000 FEW002 SCT005 BKN010 25/25 Q1014
RJOB 012200Z VRB01KT 7000 PRFG FEW000 BKN010 BKN/// 25/24 Q1014
RJOB 012115Z VRB01KT 7000 PRFG FEW000 SCT160 BKN/// 24/23 Q1013 RMK 1ST000 3AC160 A2994 FG NE-E